createdAt,value
2022-11-16T00:01:49.333Z,36.07
2022-11-16T00:04:16.218Z,35.50
2022-11-16T00:06:42.964Z,34.67
2022-11-16T00:09:22.580Z,35.90
2022-11-16T00:11:51.311Z,38.50
2022-11-16T00:14:18.954Z,38.33
2022-11-16T00:16:45.797Z,37.47
2022-11-16T00:19:17.504Z,37.13
2022-11-16T00:21:46.953Z,34.13
2022-11-16T00:24:17.280Z,34.90
2022-11-16T00:26:46.219Z,33.57
2022-11-16T00:29:20.109Z,33.47
2022-11-16T00:31:47.047Z,30.50
2022-11-16T00:34:14.059Z,32.53
2022-11-16T00:36:40.904Z,30.33
2022-11-16T00:39:07.625Z,34.20
2022-11-16T00:41:34.404Z,30.87
2022-11-16T00:44:03.747Z,34.07
2022-11-16T00:46:30.601Z,32.57
2022-11-16T00:48:57.327Z,32.27
2022-11-16T00:51:26.598Z,30.73
2022-11-16T00:53:53.354Z,30.37
2022-11-16T00:56:20.191Z,30.43
2022-11-16T00:58:47.017Z,29.37
2022-11-16T01:01:13.909Z,34.20
2022-11-16T01:03:40.744Z,27.47
2022-11-16T01:06:09.454Z,34.03
2022-11-16T01:08:38.614Z,30.60
2022-11-16T01:11:24.897Z,30.17
2022-11-16T01:13:54.074Z,28.10
2022-11-16T01:16:21.713Z,32.83
2022-11-16T01:18:49.773Z,26.33
2022-11-16T01:21:16.893Z,30.10
2022-11-16T01:23:43.702Z,30.23
2022-11-16T01:26:10.580Z,27.20
2022-11-16T01:28:37.414Z,29.63
2022-11-16T01:31:04.253Z,29.07
2022-11-16T01:33:30.998Z,29.47
2022-11-16T01:36:02.478Z,28.13
2022-11-16T01:38:31.607Z,25.63
2022-11-16T01:41:05.675Z,33.10
2022-11-16T01:43:54.049Z,28.57
2022-11-16T01:46:21.109Z,25.90
2022-11-16T01:48:48.891Z,27.57
2022-11-16T01:51:15.708Z,24.63
2022-11-16T01:53:42.455Z,26.03
2022-11-16T01:56:14.144Z,25.93
2022-11-16T01:58:41.191Z,23.60
2022-11-16T02:01:10.459Z,20.90
2022-11-16T02:03:37.802Z,24.50
2022-11-16T02:06:26.107Z,23.70
2022-11-16T02:09:42.529Z,25.80
2022-11-16T02:12:09.237Z,23.70
2022-11-16T02:14:58.556Z,23.97
2022-11-16T02:18:02.123Z,25.30
2022-11-16T02:20:40.995Z,24.73
2022-11-16T02:23:47.781Z,24.07
2022-11-16T02:26:33.396Z,27.70
2022-11-16T02:29:21.153Z,27.80
2022-11-16T02:31:58.208Z,27.33
2022-11-16T02:34:25.006Z,23.30
2022-11-16T02:36:52.730Z,23.23
2022-11-16T02:39:23.453Z,22.67
2022-11-16T02:41:52.352Z,22.20
2022-11-16T02:44:21.655Z,21.93
2022-11-16T02:46:51.255Z,21.33
2022-11-16T02:49:18.922Z,24.60
2022-11-16T02:51:48.648Z,22.33
2022-11-16T02:54:19.457Z,23.17
2022-11-16T02:57:17.898Z,21.57
2022-11-16T02:59:51.540Z,20.87
2022-11-16T03:02:39.596Z,20.70
2022-11-16T03:05:10.040Z,25.37
2022-11-16T03:07:51.231Z,22.50
2022-11-16T03:10:38.311Z,22.17
2022-11-16T03:13:08.497Z,23.70
2022-11-16T03:15:36.574Z,22.83
2022-11-16T03:18:05.989Z,23.67
2022-11-16T03:20:33.021Z,26.77
2022-11-16T03:23:01.502Z,23.70
2022-11-16T03:25:30.952Z,23.77
2022-11-16T03:28:20.076Z,24.50
2022-11-16T03:30:51.058Z,23.83
2022-11-16T03:33:24.232Z,22.27
2022-11-16T03:36:14.666Z,23.33
2022-11-16T03:38:41.392Z,24.67
2022-11-16T03:41:11.310Z,27.33
2022-11-16T03:43:40.237Z,25.70
2022-11-16T03:46:07.013Z,25.07
2022-11-16T03:48:37.651Z,26.20
2022-11-16T03:51:07.112Z,25.30
2022-11-16T03:53:36.041Z,27.20
2022-11-16T03:56:02.795Z,26.23
2022-11-16T03:58:29.562Z,30.37
2022-11-16T04:00:56.307Z,26.53
2022-11-16T04:03:25.531Z,25.70
2022-11-16T04:06:13.423Z,27.03
2022-11-16T04:09:01.383Z,28.67
2022-11-16T04:11:46.818Z,25.80
2022-11-16T04:14:34.003Z,25.03
2022-11-16T04:17:19.149Z,28.37
2022-11-16T04:20:04.275Z,28.10
2022-11-16T04:22:52.350Z,29.40
2022-11-16T04:25:24.710Z,28.67
2022-11-16T04:28:10.198Z,26.60
2022-11-16T04:30:55.305Z,30.77
2022-11-16T04:33:40.537Z,29.60
2022-11-16T04:36:26.522Z,29.43
2022-11-16T04:38:53.262Z,32.30
2022-11-16T04:41:38.267Z,32.70
2022-11-16T04:44:05.032Z,32.47
2022-11-16T04:46:50.354Z,32.20
2022-11-16T04:49:17.095Z,34.00
2022-11-16T04:51:48.770Z,31.93
2022-11-16T04:54:17.722Z,32.10
2022-11-16T04:56:46.739Z,30.27
2022-11-16T04:59:15.502Z,36.23
2022-11-16T05:02:05.754Z,34.30
2022-11-16T05:04:34.753Z,33.10
2022-11-16T05:07:01.543Z,32.50
2022-11-16T05:09:28.280Z,34.57
2022-11-16T05:11:54.989Z,39.70
2022-11-16T05:14:23.944Z,34.83
2022-11-16T05:16:50.664Z,34.60
2022-11-16T05:19:36.094Z,33.73
2022-11-16T05:22:02.829Z,34.77
2022-11-16T05:24:34.747Z,32.03
2022-11-16T05:27:05.766Z,36.03
2022-11-16T05:29:32.731Z,33.57
2022-11-16T05:31:59.907Z,37.57
2022-11-16T05:34:28.752Z,34.43
2022-11-16T05:36:55.905Z,39.10
2022-11-16T05:39:22.759Z,33.97
2022-11-16T05:41:49.544Z,38.23
2022-11-16T05:44:16.335Z,40.83
2022-11-16T05:46:43.466Z,35.63
2022-11-16T05:49:11.917Z,37.60
2022-11-16T05:51:42.094Z,41.47
2022-11-16T05:54:08.865Z,35.73
2022-11-16T05:56:35.724Z,39.20
2022-11-16T05:59:02.559Z,37.63
2022-11-16T06:01:29.362Z,35.67
2022-11-16T06:03:56.079Z,36.20
2022-11-16T06:09:07.104Z,36.03
2022-11-16T06:11:36.098Z,37.37
2022-11-16T06:14:05.834Z,35.30
2022-11-16T06:16:32.579Z,36.73
2022-11-16T06:19:01.750Z,40.73
2022-11-16T06:21:28.572Z,38.47
2022-11-16T06:23:55.362Z,35.20
2022-11-16T06:26:22.187Z,35.67
2022-11-16T06:28:48.929Z,36.07
2022-11-16T06:31:15.655Z,36.50
2022-11-16T06:33:42.365Z,35.10
2022-11-16T06:36:09.130Z,33.80
2022-11-16T06:38:36.269Z,31.67
2022-11-16T06:41:05.320Z,32.17
2022-11-16T06:43:34.548Z,30.80
2022-11-16T06:46:01.299Z,29.17
2022-11-16T06:48:28.056Z,28.00
2022-11-16T06:50:54.804Z,28.47
2022-11-16T06:53:25.944Z,31.33
2022-11-16T06:56:05.346Z,29.67
2022-11-16T06:58:32.755Z,30.23
2022-11-16T07:01:09.682Z,34.20
2022-11-16T07:03:36.460Z,30.40
2022-11-16T07:06:21.272Z,30.60
2022-11-16T07:08:47.988Z,33.10
2022-11-16T07:11:14.704Z,35.40
2022-11-16T07:13:41.456Z,30.63
2022-11-16T07:16:09.491Z,27.73
2022-11-16T07:18:37.654Z,31.63
2022-11-16T07:21:16.703Z,31.87
2022-11-16T07:23:46.128Z,27.30
2022-11-16T07:26:15.167Z,29.03
2022-11-16T07:28:46.768Z,25.97
2022-11-16T07:31:15.341Z,30.07
2022-11-16T07:33:42.199Z,27.00
2022-11-16T07:36:18.783Z,30.37
2022-11-16T07:38:47.807Z,25.57
2022-11-16T07:41:16.292Z,29.43
2022-11-16T07:43:43.795Z,29.73
2022-11-16T07:49:10.973Z,30.67
2022-11-16T07:51:38.217Z,28.57
2022-11-16T07:54:07.104Z,31.43
2022-11-16T07:56:33.834Z,30.60
2022-11-16T07:59:02.837Z,27.73
2022-11-16T08:01:29.613Z,28.30
2022-11-16T08:03:56.455Z,28.60
2022-11-16T08:06:29.946Z,30.60
2022-11-16T08:08:58.917Z,29.40
2022-11-16T08:11:25.934Z,28.03
2022-11-16T08:13:52.691Z,30.80
2022-11-16T08:16:21.247Z,30.67
2022-11-16T08:18:48.029Z,29.73
2022-11-16T08:21:15.628Z,34.90
2022-11-16T08:23:42.529Z,32.70
2022-11-16T08:26:19.826Z,32.47
2022-11-16T08:28:47.432Z,30.47
2022-11-16T08:31:20.966Z,35.60
2022-11-16T08:33:48.135Z,31.67
2022-11-16T08:36:20.183Z,30.43
2022-11-16T08:38:47.967Z,30.47
2022-11-16T08:41:17.459Z,33.60
2022-11-16T08:43:46.557Z,30.40
2022-11-16T08:46:13.374Z,28.20
2022-11-16T08:48:40.137Z,26.17
2022-11-16T08:51:17.969Z,35.93
2022-11-16T08:53:49.296Z,24.27
2022-11-16T08:56:17.228Z,24.77
2022-11-16T08:58:47.240Z,22.90
2022-11-16T09:01:20.625Z,24.67
2022-11-16T09:03:47.364Z,25.43
2022-11-16T09:06:19.119Z,22.07
2022-11-16T09:08:46.100Z,23.47
2022-11-16T09:11:15.875Z,23.47
2022-11-16T09:13:43.717Z,25.83
2022-11-16T09:16:10.598Z,22.67
2022-11-16T09:18:40.748Z,22.97
2022-11-16T09:21:07.476Z,24.67
2022-11-16T09:23:34.210Z,21.37
2022-11-16T09:26:04.865Z,18.17
2022-11-16T09:28:36.669Z,20.90
2022-11-16T09:31:06.054Z,18.00
2022-11-16T09:33:35.985Z,19.87
2022-11-16T09:36:07.152Z,15.27
2022-11-16T09:39:19.031Z,15.73
2022-11-16T09:41:44.342Z,14.03
2022-11-16T09:44:29.618Z,16.37
2022-11-16T09:46:57.641Z,14.20
2022-11-16T09:49:29.149Z,12.10
2022-11-16T09:52:01.535Z,15.33
2022-11-16T09:54:30.428Z,12.43
2022-11-16T09:57:05.617Z,17.33
2022-11-16T09:59:47.631Z,13.50
2022-11-16T10:02:43.657Z,13.63
2022-11-16T10:05:29.159Z,13.33
2022-11-16T10:08:19.767Z,18.53
2022-11-16T10:11:06.333Z,13.53
2022-11-16T10:13:51.376Z,14.43
2022-11-16T10:16:45.244Z,11.97
2022-11-16T10:19:43.533Z,12.37
2022-11-16T10:22:35.701Z,12.13
2022-11-16T10:25:16.381Z,12.73
2022-11-16T10:27:59.878Z,11.13
2022-11-16T10:30:28.863Z,11.77
2022-11-16T10:33:00.436Z,13.60
2022-11-16T10:35:41.534Z,11.97
2022-11-16T10:38:16.105Z,12.33
2022-11-16T10:40:44.398Z,12.40
2022-11-16T10:43:15.932Z,12.20
2022-11-16T10:45:47.098Z,10.57
2022-11-16T10:48:37.291Z,12.23
2022-11-16T10:51:06.944Z,11.73
2022-11-16T10:53:40.320Z,12.90
2022-11-16T10:56:24.947Z,12.27
2022-11-16T10:59:04.794Z,12.93
2022-11-16T11:01:50.020Z,14.63
2022-11-16T11:04:26.980Z,9.67
2022-11-16T11:07:00.321Z,10.77
2022-11-16T11:09:33.546Z,14.67
2022-11-16T11:12:35.129Z,11.17
2022-11-16T11:15:07.707Z,9.13
2022-11-16T11:17:35.560Z,9.90
2022-11-16T11:20:07.100Z,11.40
2022-11-16T11:22:35.036Z,10.03
2022-11-16T11:25:03.293Z,10.37
2022-11-16T11:27:34.967Z,8.83
2022-11-16T11:30:01.714Z,8.93
2022-11-16T11:32:36.130Z,11.90
2022-11-16T11:35:03.593Z,8.20
2022-11-16T11:37:33.132Z,7.87
2022-11-16T11:40:18.526Z,8.53
2022-11-16T11:43:01.201Z,7.37
2022-11-16T11:46:09.411Z,7.67
2022-11-16T11:49:11.547Z,6.43
2022-11-16T11:51:40.614Z,8.57
2022-11-16T11:54:07.783Z,9.83
2022-11-16T11:56:34.497Z,8.60
2022-11-16T11:59:01.212Z,7.10
2022-11-16T12:01:31.038Z,5.80
2022-11-16T12:04:21.760Z,6.40
2022-11-16T12:07:07.356Z,5.90
2022-11-16T12:09:48.880Z,6.93
2022-11-16T12:12:44.288Z,5.60
2022-11-16T12:15:32.362Z,8.30
2022-11-16T12:18:25.091Z,4.97
2022-11-16T12:21:10.401Z,5.67
2022-11-16T12:23:47.565Z,4.20
2022-11-16T12:26:25.190Z,4.67
2022-11-16T12:28:51.986Z,3.53
2022-11-16T12:31:32.322Z,3.30
2022-11-16T12:34:11.382Z,4.97
2022-11-16T12:37:00.114Z,4.63
2022-11-16T12:39:44.417Z,3.53
2022-11-16T12:42:23.127Z,3.60
2022-11-16T12:45:32.154Z,3.10
2022-11-16T12:48:20.482Z,3.43
2022-11-16T12:50:53.292Z,2.17
2022-11-16T12:53:23.015Z,2.73
2022-11-16T12:56:11.079Z,3.50
2022-11-16T12:58:56.335Z,5.67
2022-11-16T13:01:43.904Z,4.63
2022-11-16T13:04:18.673Z,3.87
2022-11-16T13:06:51.341Z,5.47
2022-11-16T13:09:26.392Z,4.90
2022-11-16T13:11:58.213Z,3.90
2022-11-16T13:14:45.559Z,4.77
2022-11-16T13:17:21.841Z,5.53
2022-11-16T13:20:14.231Z,4.30
2022-11-16T13:22:42.994Z,4.23
2022-11-16T13:25:19.284Z,3.37
2022-11-16T13:28:00.936Z,3.77
2022-11-16T13:31:08.932Z,4.53
2022-11-16T13:33:53.227Z,6.50
2022-11-16T13:36:40.503Z,6.60
2022-11-16T13:39:07.809Z,8.13
2022-11-16T13:41:44.235Z,8.40
2022-11-16T13:44:26.648Z,8.07
2022-11-16T13:46:56.339Z,8.47
2022-11-16T13:49:43.319Z,12.60
2022-11-16T13:55:39.226Z,14.30
2022-11-16T13:58:15.160Z,11.03
2022-11-16T14:00:45.224Z,9.03
2022-11-16T14:03:18.038Z,7.87
2022-11-16T14:05:48.594Z,12.37
2022-11-16T14:08:35.739Z,9.97
2022-11-16T14:11:05.856Z,11.07
2022-11-16T14:13:42.374Z,10.00
2022-11-16T14:16:15.194Z,12.87
2022-11-16T14:18:42.704Z,12.67
2022-11-16T14:21:34.026Z,13.53
2022-11-16T14:24:21.925Z,11.03
2022-11-16T14:27:32.322Z,11.53
2022-11-16T14:30:00.523Z,11.90
2022-11-16T14:32:52.279Z,12.00
2022-11-16T14:35:35.856Z,12.87
2022-11-16T14:38:33.170Z,12.47
2022-11-16T14:41:03.192Z,10.63
2022-11-16T14:43:42.648Z,12.13
2022-11-16T14:46:38.557Z,9.90
2022-11-16T14:49:16.038Z,8.87
2022-11-16T14:51:53.810Z,6.60
2022-11-16T14:54:38.533Z,8.73
2022-11-16T14:57:19.709Z,5.20
2022-11-16T14:59:49.007Z,6.30
2022-11-16T15:02:28.004Z,6.37
2022-11-16T15:04:54.730Z,9.23
2022-11-16T15:07:24.422Z,5.10
2022-11-16T15:09:59.389Z,5.67
2022-11-16T15:12:44.125Z,4.20
2022-11-16T15:15:10.858Z,8.13
2022-11-16T15:17:41.882Z,4.17
2022-11-16T15:20:15.198Z,4.00
2022-11-16T15:22:43.614Z,3.80
2022-11-16T15:25:35.354Z,4.70
2022-11-16T15:28:04.494Z,4.07
2022-11-16T15:30:34.163Z,4.43
2022-11-16T15:33:09.449Z,5.17
2022-11-16T15:35:38.972Z,4.33
2022-11-16T15:38:26.189Z,7.53
2022-11-16T15:41:00.464Z,7.30
2022-11-16T15:43:49.634Z,5.17
2022-11-16T15:46:16.724Z,5.77
2022-11-16T15:48:45.902Z,4.20
2022-11-16T15:51:12.617Z,6.60
2022-11-16T15:53:40.251Z,5.27
2022-11-16T15:56:13.605Z,4.37
2022-11-16T15:58:40.956Z,4.07
2022-11-16T16:01:08.604Z,5.00
2022-11-16T16:03:36.046Z,4.07
2022-11-16T16:06:03.094Z,4.53
2022-11-16T16:09:02.639Z,4.10
2022-11-16T16:11:31.529Z,5.50
2022-11-16T16:14:02.434Z,5.60
2022-11-16T16:16:38.492Z,6.07
2022-11-16T16:19:10.027Z,4.43
2022-11-16T16:21:55.295Z,3.73
2022-11-16T16:24:38.923Z,4.47
2022-11-16T16:27:26.577Z,5.30
2022-11-16T16:29:57.238Z,6.57
2022-11-16T16:32:28.193Z,7.33
2022-11-16T16:34:56.339Z,4.03
2022-11-16T16:37:23.524Z,10.47
2022-11-16T16:39:50.238Z,4.97
2022-11-16T16:42:17.133Z,5.37
2022-11-16T16:44:44.396Z,5.43
2022-11-16T16:47:15.957Z,5.23
2022-11-16T16:49:42.879Z,5.10
2022-11-16T16:52:13.762Z,5.67
2022-11-16T16:54:45.237Z,4.83
2022-11-16T16:57:14.035Z,5.37
2022-11-16T16:59:40.764Z,4.87
2022-11-16T17:02:09.260Z,3.63
2022-11-16T17:04:36.115Z,6.53
2022-11-16T17:07:05.406Z,5.50
2022-11-16T17:09:32.169Z,6.73
2022-11-16T17:11:58.889Z,3.67
2022-11-16T17:14:25.593Z,5.17
2022-11-16T17:16:52.378Z,7.00
2022-11-16T17:19:24.215Z,6.87
2022-11-16T17:21:56.107Z,3.97
2022-11-16T17:24:22.989Z,4.07
2022-11-16T17:26:50.562Z,5.20
2022-11-16T17:29:19.592Z,4.20
2022-11-16T17:31:49.179Z,6.07
2022-11-16T17:34:16.050Z,3.70
2022-11-16T17:36:43.367Z,4.77
2022-11-16T17:39:10.076Z,4.53
2022-11-16T17:41:39.288Z,3.43
2022-11-16T17:44:06.389Z,3.53
2022-11-16T17:46:33.072Z,3.73
2022-11-16T17:49:02.423Z,5.47
2022-11-16T17:51:31.463Z,3.53
2022-11-16T17:54:00.791Z,3.33
2022-11-16T17:56:30.032Z,3.77
2022-11-16T17:58:58.443Z,2.77
2022-11-16T18:01:25.453Z,2.73
2022-11-16T18:03:52.217Z,3.60
2022-11-16T18:06:22.529Z,3.57
2022-11-16T18:08:49.522Z,3.07
2022-11-16T18:11:20.826Z,3.80
2022-11-16T18:13:47.808Z,3.90
2022-11-16T18:16:16.217Z,3.73
2022-11-16T18:18:43.260Z,3.70
2022-11-16T18:21:10.179Z,4.17
2022-11-16T18:23:37.541Z,4.10
2022-11-16T18:26:14.411Z,3.60
2022-11-16T18:28:41.434Z,3.73
2022-11-16T18:31:12.802Z,4.60
2022-11-16T18:33:39.738Z,5.30
2022-11-16T18:36:09.459Z,5.00
2022-11-16T18:38:41.513Z,5.07
2022-11-16T18:41:28.479Z,5.40
2022-11-16T18:43:59.396Z,3.97
2022-11-16T18:46:33.130Z,4.37
2022-11-16T18:49:00.053Z,4.47
2022-11-16T18:51:27.398Z,4.50
2022-11-16T18:53:56.612Z,5.33
2022-11-16T18:56:23.596Z,4.13
2022-11-16T18:58:52.425Z,4.90
2022-11-16T19:01:21.074Z,3.70
2022-11-16T19:03:47.854Z,3.43
2022-11-16T19:06:17.882Z,3.43
2022-11-16T19:08:46.855Z,3.97
2022-11-16T19:11:17.076Z,4.13
2022-11-16T19:13:44.189Z,4.43
2022-11-16T19:16:14.667Z,5.30
2022-11-16T19:18:41.443Z,5.60
2022-11-16T19:21:10.188Z,6.20
2022-11-16T19:23:40.271Z,5.27
2022-11-16T19:26:09.266Z,7.27
2022-11-16T19:28:42.104Z,5.77
2022-11-16T19:31:22.156Z,5.30
2022-11-16T19:33:52.591Z,4.13
2022-11-16T19:36:21.907Z,4.47
2022-11-16T19:38:48.680Z,5.40
2022-11-16T19:41:16.183Z,3.93
2022-11-16T19:43:43.097Z,5.23
2022-11-16T19:46:13.566Z,4.67
2022-11-16T19:48:45.802Z,5.37
2022-11-16T19:51:14.366Z,6.77
2022-11-16T19:53:41.275Z,10.27
2022-11-16T19:56:10.239Z,5.17
2022-11-16T19:58:40.664Z,8.60
2022-11-16T20:01:11.037Z,5.60
2022-11-16T20:03:41.923Z,6.47
2022-11-16T20:06:15.127Z,9.20
2022-11-16T20:08:42.741Z,9.67
2022-11-16T20:11:20.591Z,9.03
2022-11-16T20:13:51.008Z,8.53
2022-11-16T20:16:23.364Z,7.53
2022-11-16T20:18:52.876Z,7.53
2022-11-16T20:21:30.746Z,8.33
2022-11-16T20:24:05.818Z,9.93
2022-11-16T20:26:35.600Z,10.73
2022-11-16T20:29:02.472Z,7.80
2022-11-16T20:31:30.483Z,8.23
2022-11-16T20:34:27.696Z,11.63
2022-11-16T20:40:00.541Z,10.17
2022-11-16T20:42:27.250Z,9.83
2022-11-16T20:44:54.170Z,10.93
2022-11-16T20:47:20.938Z,10.77
2022-11-16T20:49:47.650Z,11.83
2022-11-16T20:52:16.553Z,9.47
2022-11-16T20:58:51.946Z,12.33
2022-11-16T21:01:20.684Z,10.53
2022-11-16T21:03:47.615Z,11.37
2022-11-16T21:06:17.118Z,11.23
2022-11-16T21:08:46.926Z,11.90
2022-11-16T21:11:15.327Z,11.47
2022-11-16T21:14:03.571Z,12.63
2022-11-16T21:16:30.377Z,13.17
2022-11-16T21:18:57.147Z,13.83
2022-11-16T21:21:24.220Z,14.73
2022-11-16T21:23:54.924Z,14.67
2022-11-16T21:26:23.519Z,12.90
2022-11-16T21:28:50.403Z,14.43
2022-11-16T21:31:18.680Z,12.57
2022-11-16T21:33:47.791Z,13.27
2022-11-16T21:36:15.806Z,11.43
2022-11-16T21:38:42.775Z,12.27
2022-11-16T21:41:27.795Z,15.97
2022-11-16T21:43:54.575Z,11.83
2022-11-16T21:46:25.551Z,10.97
2022-11-16T21:48:53.951Z,10.70
2022-11-16T21:51:21.714Z,14.37
2022-11-16T21:53:51.135Z,11.87
2022-11-16T21:56:19.284Z,11.03
2022-11-16T21:59:16.971Z,11.50
2022-11-16T22:02:04.174Z,13.13
2022-11-16T22:04:49.464Z,10.23
2022-11-16T22:07:36.769Z,8.83
2022-11-16T22:10:10.812Z,8.93
2022-11-16T22:12:37.760Z,9.90
2022-11-16T22:15:05.524Z,8.93
2022-11-16T22:17:32.283Z,13.80
2022-11-16T22:19:59.089Z,9.40
2022-11-16T22:22:25.881Z,10.40
2022-11-16T22:24:52.930Z,11.10
2022-11-16T22:27:22.120Z,8.00
2022-11-16T22:29:48.861Z,9.30
2022-11-16T22:32:16.017Z,7.93
2022-11-16T22:34:42.858Z,9.87
2022-11-16T22:37:09.596Z,8.40
2022-11-16T22:39:38.260Z,6.77
2022-11-16T22:42:05.247Z,6.70
2022-11-16T22:44:31.971Z,7.90
2022-11-16T22:46:58.800Z,6.20
2022-11-16T22:49:28.103Z,6.27
2022-11-16T22:51:54.957Z,6.30
2022-11-16T22:54:25.955Z,7.93
2022-11-16T22:56:55.413Z,7.83
2022-11-16T22:59:22.215Z,8.77
2022-11-16T23:01:53.932Z,7.93
2022-11-16T23:04:20.734Z,7.43
2022-11-16T23:06:47.550Z,5.50
2022-11-16T23:09:14.327Z,7.17
2022-11-16T23:11:59.601Z,8.93
2022-11-16T23:14:44.952Z,5.07
2022-11-16T23:17:11.678Z,4.70
2022-11-16T23:19:56.826Z,7.07
2022-11-16T23:22:42.242Z,5.40
2022-11-16T23:25:31.438Z,5.63
2022-11-16T23:28:01.295Z,7.03
2022-11-16T23:30:28.047Z,6.27
2022-11-16T23:32:59.689Z,7.07
2022-11-16T23:35:26.468Z,6.70
2022-11-16T23:37:57.037Z,6.03
2022-11-16T23:40:27.480Z,7.43
2022-11-16T23:43:15.590Z,5.47
2022-11-16T23:45:42.826Z,5.73
2022-11-16T23:48:13.146Z,5.87
2022-11-16T23:50:39.958Z,7.80
2022-11-16T23:53:07.190Z,5.13
2022-11-16T23:55:34.362Z,6.30
2022-11-16T23:58:01.169Z,6.33
